Khanewal Weather



Khanewal's Current Weather

Temprature 38o smoke

smoke

Rain: 0 %

Min Temprature38o
Max Temprature38o
Humidity50
Wind Speed3.1 m/h
Sun Rise05:38:12
Sun Set18:56:14
Current Time: 13-Aug-2020 19:24:11
Lat/Lon: 30.3, 71.93




Khanewal's Geo Location



Khanewal's Weather Forecast

Time Overall Temp Min Temp Max Temp Humidity Wind Speed Rain
13-Aug-2020 (Thu)
20:00:00 few clouds 38.690 38.690 39.410 41 5.89 m/h 0 %
23:00:00 clear sky 37.650 37.550 37.650 39 4.81 m/h 0 %
14-Aug-2020 (Fri)
02:00:00 clear sky 35.410 35.230 35.410 44 2.28 m/h 0 %
05:00:00 clear sky 34.070 34.040 34.070 49 2.86 m/h 0 %
08:00:00 clear sky 36.990 36.990 36.990 43 3.33 m/h 0 %
11:00:00 few clouds 41.150 41.150 41.150 33 2.22 m/h 0 %
14:00:00 broken clouds 41.210 41.210 41.210 32 2.2 m/h 0 %
17:00:00 broken clouds 41.950 41.950 41.950 31 2.46 m/h 0 %
20:00:00 scattered clouds 36.990 36.990 36.990 42 4.7 m/h 0 %
23:00:00 few clouds 35.060 35.060 35.060 47 2.66 m/h 0 %
15-Aug-2020 (Sat)
02:00:00 clear sky 34.390 34.390 34.390 47 3.16 m/h 0 %
05:00:00 clear sky 33.690 33.690 33.690 47 3.6 m/h 0 %
08:00:00 clear sky 37.080 37.080 37.080 40 4.62 m/h 0 %
11:00:00 clear sky 42.920 42.920 42.920 28 4.61 m/h 0 %
14:00:00 broken clouds 43.850 43.850 43.850 26 3.33 m/h 0 %
17:00:00 broken clouds 42.270 42.270 42.270 29 5.07 m/h 0 %
20:00:00 scattered clouds 37.730 37.730 37.730 39 5.47 m/h 0 %
23:00:00 few clouds 36.500 36.500 36.500 40 3.97 m/h 0 %
16-Aug-2020 (Sun)
02:00:00 clear sky 35.230 35.230 35.230 43 3.26 m/h 0 %
05:00:00 clear sky 34.200 34.200 34.200 46 2.95 m/h 0 %
08:00:00 clear sky 37.570 37.570 37.570 41 4.42 m/h 0 %
11:00:00 clear sky 43.490 43.490 43.490 26 5.09 m/h 0 %
14:00:00 clear sky 45.910 45.910 45.910 21 3.49 m/h 0 %
17:00:00 scattered clouds 42.310 42.310 42.310 27 4.82 m/h 0 %
20:00:00 scattered clouds 37.830 37.830 37.830 37 6.42 m/h 0 %
23:00:00 few clouds 36.600 36.600 36.600 40 4.25 m/h 0 %
17-Aug-2020 (Mon)
02:00:00 clear sky 35.000 35.000 35.000 46 3.37 m/h 0 %
05:00:00 clear sky 33.560 33.560 33.560 53 4.15 m/h 0 %
08:00:00 clear sky 35.780 35.780 35.780 46 6.46 m/h 0 %
11:00:00 few clouds 41.680 41.680 41.680 31 6.48 m/h 0 %
14:00:00 broken clouds 44.130 44.130 44.130 25 5.73 m/h 0 %
17:00:00 broken clouds 43.150 43.150 43.150 25 3.54 m/h 0 %
20:00:00 overcast clouds 38.730 38.730 38.730 33 4.47 m/h 0 %
23:00:00 overcast clouds 35.950 35.950 35.950 42 6.62 m/h 0 %
18-Aug-2020 (Tue)
02:00:00 overcast clouds 33.390 33.390 33.390 50 5.81 m/h 0 %
05:00:00 broken clouds 32.750 32.750 32.750 51 4.78 m/h 0 %
08:00:00 broken clouds 35.620 35.620 35.620 45 6.17 m/h 0 %
11:00:00 scattered clouds 42.070 42.070 42.070 31 6.16 m/h 0 %
14:00:00 few clouds 44.400 44.400 44.400 26 5.85 m/h 0 %
17:00:00 scattered clouds 42.750 42.750 42.750 28 5.18 m/h 0 %

Famous Cities (60)